Time;durP1;ratioP1;P1;durP2;ratioP2;P2;SDS_P1;SDS_P2;PMS_P1;PMS_P2;Temp;Humidity;BMP_temperature;BMP_pressure;BME280_temperature;BME280_humidity;BME280_pressure;Samples;Min_cycle;Max_cycle;Signal;HPM_P1;HPM_P2
2022/03/16 00:01:47;;;;;;;56.03;28.70;;;3.20;99.90;;;;;;4865079;29;20080;-92
2022/03/16 00:04:13;;;;;;;56.13;26.40;;;3.10;99.90;;;;;;4864353;29;20048;-92
2022/03/16 00:06:38;;;;;;;51.67;25.77;;;3.10;99.90;;;;;;4865278;29;20056;-93
2022/03/16 00:09:04;;;;;;;56.87;27.50;;;3.10;99.90;;;;;;4864724;29;20060;-93
2022/03/16 00:11:29;;;;;;;51.87;26.50;;;3.10;99.90;;;;;;4881147;29;20048;-93
2022/03/16 00:13:55;;;;;;;55.60;26.67;;;3.10;99.90;;;;;;4864967;29;20553;-93
2022/03/16 00:16:21;;;;;;;51.33;26.70;;;3.00;99.90;;;;;;4864624;29;20059;-93
2022/03/16 00:18:46;;;;;;;51.20;24.60;;;3.10;99.90;;;;;;4880374;29;20052;-93
2022/03/16 00:21:12;;;;;;;60.47;27.63;;;3.00;99.90;;;;;;4864562;29;20052;-93
2022/03/16 00:23:37;;;;;;;58.63;28.03;;;3.00;99.90;;;;;;4864684;29;20048;-93
2022/03/16 00:26:03;;;;;;;73.53;31.67;;;3.00;99.90;;;;;;4880331;29;20085;-93
2022/03/16 00:28:29;;;;;;;58.30;28.67;;;3.00;99.90;;;;;;4864888;29;20045;-93
2022/03/16 00:30:54;;;;;;;59.60;28.30;;;3.00;99.90;;;;;;4881013;29;20069;-93
2022/03/16 00:33:20;;;;;;;66.43;27.63;;;2.90;99.90;;;;;;4880502;29;20044;-93
2022/03/16 00:35:45;;;;;;;69.93;31.93;;;2.90;99.90;;;;;;4880932;29;20462;-91
2022/03/16 00:38:13;;;;;;;71.80;29.50;;;2.90;99.90;;;;;;4863691;29;20057;-92
2022/03/16 00:40:38;;;;;;;67.07;31.00;;;2.90;99.90;;;;;;4863553;29;20109;-92
2022/03/16 00:43:04;;;;;;;65.27;29.77;;;2.90;99.90;;;;;;4864322;29;20052;-93
2022/03/16 00:45:30;;;;;;;70.50;30.20;;;2.90;99.90;;;;;;4864442;29;20052;-92
2022/03/16 00:47:56;;;;;;;82.80;33.90;;;2.90;99.90;;;;;;4864154;29;20493;-93
2022/03/16 00:50:21;;;;;;;78.80;32.50;;;2.90;99.90;;;;;;4864038;29;20076;-94
2022/03/16 00:52:47;;;;;;;79.90;33.93;;;3.00;99.90;;;;;;4880556;29;20053;-92
2022/03/16 00:55:12;;;;;;;71.93;32.33;;;3.00;99.90;;;;;;4880465;29;20055;-93
2022/03/16 00:57:38;;;;;;;78.20;33.53;;;3.00;99.90;;;;;;4863789;29;20048;-93
2022/03/16 01:00:05;;;;;;;87.93;34.33;;;2.90;99.90;;;;;;4880190;29;20080;-93
2022/03/16 01:02:31;;;;;;;82.47;35.10;;;3.00;99.90;;;;;;4864288;29;20464;-93
2022/03/16 01:04:56;;;;;;;81.77;34.60;;;3.00;99.90;;;;;;4864038;29;20048;-93
2022/03/16 01:07:22;;;;;;;109.87;39.87;;;3.00;99.90;;;;;;4880209;29;20056;-94
2022/03/16 01:09:48;;;;;;;98.17;40.03;;;3.10;99.90;;;;;;4880356;29;20131;-93
2022/03/16 01:12:13;;;;;;;89.77;37.63;;;3.20;99.90;;;;;;4880307;29;20045;-93
2022/03/16 01:14:39;;;;;;;109.17;40.53;;;3.20;99.90;;;;;;4863382;29;20052;-92
2022/03/16 01:17:05;;;;;;;105.47;39.57;;;3.30;99.90;;;;;;4864262;29;20076;-92
2022/03/16 01:19:31;;;;;;;103.60;40.97;;;3.30;99.90;;;;;;4884493;29;20045;-92
2022/03/16 01:21:57;;;;;;;106.53;39.30;;;3.30;99.90;;;;;;4883956;29;20044;-92
2022/03/16 01:24:22;;;;;;;117.03;41.47;;;3.30;99.90;;;;;;4883354;29;20064;-91
2022/03/16 01:26:48;;;;;;;109.57;40.13;;;3.30;99.90;;;;;;4863954;29;20052;-92
2022/03/16 01:29:14;;;;;;;103.43;38.73;;;3.20;99.90;;;;;;4879423;29;20041;-93
2022/03/16 01:31:39;;;;;;;95.63;36.63;;;3.20;99.90;;;;;;4863227;29;20041;-92
2022/03/16 01:34:05;;;;;;;81.27;34.23;;;3.10;99.90;;;;;;4863090;29;20489;-91
2022/03/16 01:36:30;;;;;;;120.87;37.30;;;3.10;99.90;;;;;;4879767;29;20037;-92
2022/03/16 01:38:56;;;;;;;91.30;34.67;;;3.00;99.90;;;;;;4863233;29;20481;-91
2022/03/16 01:41:22;;;;;;;101.97;37.27;;;2.90;99.90;;;;;;4863001;29;20061;-93
2022/03/16 01:43:56;;;;;;;73.20;32.07;;;2.80;99.90;;;;;;4879023;29;20101;-93
2022/03/16 01:46:22;;;;;;;78.70;31.73;;;2.80;99.90;;;;;;4862836;29;20045;-93
2022/03/16 01:48:51;;;;;;;75.00;31.10;;;2.70;99.90;;;;;;4879774;29;20501;-93
2022/03/16 01:51:17;;;;;;;80.17;32.47;;;2.70;99.90;;;;;;4879132;29;20048;-93
2022/03/16 01:53:43;;;;;;;79.43;32.30;;;2.60;99.90;;;;;;4879698;29;20113;-93
2022/03/16 01:56:09;;;;;;;71.30;30.30;;;2.60;99.90;;;;;;4862134;29;20055;-92
2022/03/16 01:58:35;;;;;;;73.13;31.10;;;2.50;99.90;;;;;;4879451;29;20053;-92
2022/03/16 02:01:02;;;;;;;76.73;31.23;;;2.50;99.90;;;;;;4879700;29;20438;-92
2022/03/16 02:03:27;;;;;;;74.80;30.33;;;2.50;99.90;;;;;;4862052;29;20052;-92
2022/03/16 02:05:54;;;;;;;77.20;31.13;;;2.40;99.90;;;;;;4879609;29;20049;-93
2022/03/16 02:08:20;;;;;;;66.00;30.53;;;2.30;99.90;;;;;;4878397;29;20051;-91
2022/03/16 02:10:46;;;;;;;67.27;29.40;;;2.40;99.90;;;;;;4878711;29;20120;-92
2022/03/16 02:13:12;;;;;;;70.37;30.67;;;2.30;99.90;;;;;;4862661;29;20513;-92
2022/03/16 02:15:38;;;;;;;85.63;32.97;;;2.30;99.90;;;;;;4879765;29;20045;-91
2022/03/16 02:18:05;;;;;;;68.20;29.53;;;2.30;99.90;;;;;;4878924;29;20074;-93
2022/03/16 02:20:31;;;;;;;69.37;30.13;;;2.30;99.90;;;;;;4879445;29;20056;-92
2022/03/16 02:22:57;;;;;;;67.37;29.70;;;2.20;99.90;;;;;;4862904;29;20041;-92
2022/03/16 02:25:24;;;;;;;70.60;28.97;;;2.20;99.90;;;;;;4862342;29;20087;-93
2022/03/16 02:27:52;;;;;;;64.47;28.63;;;2.20;99.90;;;;;;4862900;29;20041;-93
2022/03/16 02:30:18;;;;;;;61.83;27.73;;;2.10;99.90;;;;;;4862615;29;20127;-92
2022/03/16 02:32:43;;;;;;;67.40;29.37;;;2.10;99.90;;;;;;4879130;29;20072;-91
2022/03/16 02:35:09;;;;;;;67.27;29.60;;;2.00;99.90;;;;;;4862713;29;20121;-92
2022/03/16 02:37:39;;;;;;;70.00;28.37;;;2.00;99.90;;;;;;4862927;29;20033;-92
2022/03/16 02:40:06;;;;;;;61.93;29.43;;;2.00;99.90;;;;;;4861781;29;20405;-92
2022/03/16 02:42:32;;;;;;;60.27;27.63;;;2.00;99.90;;;;;;4862598;29;20052;-93
2022/03/16 02:44:58;;;;;;;58.33;26.90;;;1.90;99.90;;;;;;4862886;29;20519;-92
2022/03/16 02:47:24;;;;;;;60.27;27.23;;;1.90;99.90;;;;;;4878899;29;20052;-92
2022/03/16 02:49:51;;;;;;;54.33;26.00;;;1.80;99.90;;;;;;4879042;29;20056;-92
2022/03/16 02:52:17;;;;;;;61.93;27.47;;;1.80;99.90;;;;;;4878508;29;20081;-91
2022/03/16 02:54:43;;;;;;;62.83;26.50;;;1.80;99.90;;;;;;4862710;29;20045;-93
2022/03/16 02:57:09;;;;;;;59.70;28.03;;;1.80;99.90;;;;;;4862165;29;20041;-93
2022/03/16 02:59:36;;;;;;;59.73;27.13;;;1.80;99.90;;;;;;4878885;29;20485;-93
2022/03/16 03:02:02;;;;;;;59.10;27.23;;;1.70;99.90;;;;;;4861667;29;20053;-91
2022/03/16 03:04:27;;;;;;;58.27;26.97;;;1.70;99.90;;;;;;4861737;29;20064;-91
2022/03/16 03:06:53;;;;;;;56.83;26.37;;;1.80;99.90;;;;;;4861394;29;20045;-92
2022/03/16 03:09:19;;;;;;;59.87;26.93;;;1.60;99.90;;;;;;4862171;29;20485;-93
2022/03/16 03:11:44;;;;;;;58.13;24.83;;;1.60;99.90;;;;;;4862506;29;20080;-93
2022/03/16 03:14:10;;;;;;;56.37;27.43;;;1.60;99.90;;;;;;4861643;29;20048;-93
2022/03/16 03:16:35;;;;;;;57.03;26.23;;;1.50;99.90;;;;;;4862805;29;20080;-93
2022/03/16 03:19:01;;;;;;;58.67;25.97;;;1.50;99.90;;;;;;4878497;29;20162;-93
2022/03/16 03:21:27;;;;;;;54.50;25.53;;;1.50;99.90;;;;;;4881497;29;20044;-93
2022/03/16 03:23:52;;;;;;;58.00;26.83;;;1.50;99.90;;;;;;4882330;29;20105;-93
2022/03/16 03:26:18;;;;;;;52.53;25.23;;;1.40;99.90;;;;;;4882338;29;20049;-93
2022/03/16 03:28:43;;;;;;;53.07;25.63;;;1.40;99.90;;;;;;4867097;29;20074;-92
2022/03/16 03:31:09;;;;;;;46.80;23.50;;;1.40;99.90;;;;;;4873541;29;20053;-94
2022/03/16 03:33:34;;;;;;;48.40;22.57;;;1.40;99.90;;;;;;4904091;29;20033;-92
2022/03/16 03:36:00;;;;;;;46.13;23.53;;;1.40;99.90;;;;;;4885263;29;20041;-92
2022/03/16 03:38:26;;;;;;;47.73;24.03;;;1.40;99.90;;;;;;4865195;29;20127;-93
2022/03/16 03:40:51;;;;;;;48.77;23.77;;;1.30;99.90;;;;;;4865576;29;20072;-92
2022/03/16 03:43:17;;;;;;;47.10;23.60;;;1.30;99.90;;;;;;4881361;29;20048;-93
2022/03/16 03:45:42;;;;;;;49.67;24.20;;;1.30;99.90;;;;;;4881093;29;20059;-92
2022/03/16 03:48:08;;;;;;;49.50;24.43;;;1.40;99.90;;;;;;4865073;29;20056;-92
2022/03/16 03:50:34;;;;;;;57.33;26.43;;;1.40;99.90;;;;;;4864876;29;20037;-92
2022/03/16 03:52:59;;;;;;;53.80;24.67;;;1.40;99.90;;;;;;4881790;29;20545;-93
2022/03/16 03:55:25;;;;;;;75.50;27.83;;;1.40;99.90;;;;;;4882093;29;20131;-93
2022/03/16 03:57:51;;;;;;;56.07;25.40;;;1.40;99.90;;;;;;4865179;29;20084;-93
2022/03/16 04:00:17;;;;;;;54.63;26.77;;;1.40;99.90;;;;;;4881593;29;20056;-93
2022/03/16 04:02:47;;;;;;;52.60;25.37;;;1.40;99.90;;;;;;4864803;29;20053;-93
2022/03/16 04:05:13;;;;;;;64.20;26.87;;;1.30;99.90;;;;;;4881629;29;20163;-92
2022/03/16 04:07:38;;;;;;;68.40;27.47;;;1.30;99.90;;;;;;4865108;29;20040;-91
2022/03/16 04:10:04;;;;;;;63.20;27.47;;;1.20;99.90;;;;;;4865337;29;20053;-93
2022/03/16 04:12:30;;;;;;;119.23;29.03;;;1.30;99.90;;;;;;4883765;29;20103;-92
2022/03/16 04:14:55;;;;;;;116.87;30.30;;;1.30;99.90;;;;;;4887012;29;20045;-91
2022/03/16 04:17:21;;;;;;;75.30;26.40;;;1.30;99.90;;;;;;4869991;29;20135;-92
2022/03/16 04:19:47;;;;;;;80.20;27.47;;;1.20;99.90;;;;;;4864877;29;20101;-91
2022/03/16 04:22:12;;;;;;;66.67;26.83;;;1.20;99.90;;;;;;4880932;29;20059;-92
2022/03/16 04:24:38;;;;;;;69.70;25.93;;;1.20;99.90;;;;;;4864841;29;20094;-93
2022/03/16 04:27:03;;;;;;;53.10;24.30;;;1.20;99.90;;;;;;4864598;29;20139;-92
2022/03/16 04:29:29;;;;;;;61.47;25.87;;;1.10;99.90;;;;;;4881411;29;20389;-92
2022/03/16 04:31:55;;;;;;;60.77;25.30;;;1.10;99.90;;;;;;4863602;29;20056;-92
2022/03/16 04:34:20;;;;;;;117.93;30.43;;;1.00;99.90;;;;;;4881031;29;20497;-92
2022/03/16 04:36:46;;;;;;;55.00;24.40;;;1.20;99.90;;;;;;4864217;29;20045;-92
2022/03/16 04:39:12;;;;;;;59.27;23.23;;;1.00;99.90;;;;;;4864083;29;20041;-92
2022/03/16 04:41:38;;;;;;;60.67;24.70;;;1.00;99.90;;;;;;4881421;29;20426;-93
2022/03/16 04:44:03;;;;;;;62.80;24.50;;;0.90;99.90;;;;;;4864838;29;20049;-92
2022/03/16 04:46:29;;;;;;;44.87;22.70;;;0.90;99.90;;;;;;4863953;29;20041;-93
2022/03/16 04:48:54;;;;;;;57.60;23.40;;;0.80;99.90;;;;;;4880753;29;20037;-92
2022/03/16 04:51:20;;;;;;;61.43;25.73;;;0.80;99.90;;;;;;4880474;29;20056;-92
2022/03/16 04:53:46;;;;;;;43.20;23.23;;;0.80;99.90;;;;;;4880554;29;20041;-92
2022/03/16 04:56:12;;;;;;;49.50;24.90;;;0.80;99.90;;;;;;4864194;29;20056;-92
2022/03/16 04:58:38;;;;;;;51.70;24.70;;;0.80;99.90;;;;;;4880893;29;20072;-92
2022/03/16 05:01:04;;;;;;;51.50;26.27;;;0.90;99.90;;;;;;4880206;29;20100;-94
2022/03/16 05:03:29;;;;;;;50.37;24.67;;;0.90;99.90;;;;;;4863951;29;20406;-92
2022/03/16 05:05:55;;;;;;;50.57;25.43;;;0.90;99.90;;;;;;4863550;29;20084;-93
2022/03/16 05:08:20;;;;;;;53.03;24.83;;;0.90;99.90;;;;;;4863233;29;20117;-92
2022/03/16 05:10:46;;;;;;;48.30;24.87;;;0.90;99.90;;;;;;4864204;29;20140;-93
2022/03/16 05:13:12;;;;;;;46.97;23.53;;;0.90;99.90;;;;;;4880085;29;20076;-93
2022/03/16 05:15:37;;;;;;;48.33;24.23;;;0.90;99.90;;;;;;4880787;29;20049;-92
2022/03/16 05:18:03;;;;;;;52.50;24.87;;;0.80;99.90;;;;;;4888069;29;20045;-92
2022/03/16 05:20:29;;;;;;;47.63;24.10;;;0.80;99.90;;;;;;4898843;29;20049;-92
2022/03/16 05:22:55;;;;;;;49.77;23.57;;;0.90;99.90;;;;;;4864790;29;20045;-92
2022/03/16 05:25:30;;;;;;;49.20;25.17;;;0.70;99.90;;;;;;4880104;29;20052;-92
2022/03/16 05:27:56;;;;;;;45.43;22.40;;;0.70;99.90;;;;;;4880092;29;20501;-92
2022/03/16 05:30:26;;;;;;;48.97;23.83;;;0.70;99.90;;;;;;4863398;29;20049;-94
2022/03/16 05:32:54;;;;;;;46.17;23.27;;;0.70;99.90;;;;;;4880083;29;20084;-94
2022/03/16 05:35:20;;;;;;;47.17;23.90;;;0.70;99.90;;;;;;4878903;29;20053;-93
2022/03/16 05:37:46;;;;;;;46.03;24.00;;;0.70;99.90;;;;;;4880177;29;20080;-93
2022/03/16 05:40:12;;;;;;;50.50;25.33;;;0.70;99.90;;;;;;4863618;29;20093;-93
2022/03/16 05:42:38;;;;;;;57.87;26.80;;;0.90;99.90;;;;;;4880816;29;20045;-93
2022/03/16 05:45:05;;;;;;;50.80;26.20;;;0.80;99.90;;;;;;4886759;29;20056;-91
2022/03/16 05:47:31;;;;;;;48.70;25.43;;;0.80;99.90;;;;;;4869172;29;20101;-93
2022/03/16 05:49:57;;;;;;;54.37;26.37;;;0.80;99.90;;;;;;4880469;29;20045;-92
2022/03/16 05:52:24;;;;;;;54.17;26.00;;;0.80;99.90;;;;;;4863303;29;20116;-92
2022/03/16 05:54:55;;;;;;;55.10;26.27;;;0.90;99.90;;;;;;4863804;29;20049;-92
2022/03/16 05:57:21;;;;;;;68.43;29.73;;;0.90;99.90;;;;;;4862482;29;20132;-90
2022/03/16 05:59:47;;;;;;;85.80;33.60;;;0.90;99.90;;;;;;4880029;29;20037;-89
2022/03/16 06:02:13;;;;;;;80.57;34.20;;;1.10;99.90;;;;;;4878728;29;20136;-88
2022/03/16 06:04:39;;;;;;;88.27;36.13;;;2.50;99.90;;;;;;4862276;29;20044;-89
2022/03/16 06:07:08;;;;;;;87.47;35.13;;;1.30;99.90;;;;;;4879135;29;20045;-88
2022/03/16 06:09:34;;;;;;;83.50;36.23;;;2.00;99.90;;;;;;4862123;29;20049;-91
2022/03/16 06:12:51;;;;;;;89.17;38.43;;;1.40;99.90;;;;;;4863236;29;20045;-90
2022/03/16 06:15:17;;;;;;;86.60;36.87;;;1.90;99.90;;;;;;4878546;29;20049;-92
2022/03/16 06:17:42;;;;;;;87.07;38.60;;;1.60;99.90;;;;;;4878930;29;20482;-89
2022/03/16 06:20:13;;;;;;;90.97;39.73;;;1.70;99.90;;;;;;4879434;29;20049;-91
2022/03/16 06:22:39;;;;;;;93.57;38.43;;;2.00;99.90;;;;;;4880099;29;20047;-90
2022/03/16 06:25:06;;;;;;;81.63;37.93;;;2.10;99.90;;;;;;4879689;29;20124;-88
2022/03/16 06:27:38;;;;;;;101.27;39.90;;;2.10;99.90;;;;;;4880216;29;20045;-94
2022/03/16 06:30:16;;;;;;;100.13;42.03;;;2.00;99.90;;;;;;4863444;29;20136;-94
2022/03/16 06:32:54;;;;;;;107.50;43.30;;;2.00;99.90;;;;;;4863073;29;20102;-94
2022/03/16 06:35:35;;;;;;;113.27;45.17;;;2.20;99.90;;;;;;4878857;29;20054;-93
2022/03/16 06:38:12;;;;;;;110.40;43.50;;;2.20;99.90;;;;;;4879587;29;20045;-93
2022/03/16 06:40:38;;;;;;;107.03;41.93;;;3.40;99.90;;;;;;4879269;29;20094;-95
2022/03/16 06:43:05;;;;;;;102.83;43.20;;;2.40;99.90;;;;;;4862553;29;20412;-91
2022/03/16 06:45:49;;;;;;;105.43;42.73;;;2.30;99.90;;;;;;4878400;29;20124;-91
2022/03/16 06:48:26;;;;;;;102.45;43.00;;;2.40;99.90;;;;;;4879024;29;20049;-90
2022/03/16 06:51:07;;;;;;;102.03;42.23;;;2.70;99.90;;;;;;4879106;29;20101;-89
2022/03/16 06:53:51;;;;;;;86.00;39.87;;;2.50;99.90;;;;;;4861525;29;20606;-88
2022/03/16 06:56:26;;;;;;;89.50;39.35;;;2.90;99.90;;;;;;4864513;29;20131;-86
2022/03/16 06:58:51;;;;;;;86.93;38.73;;;2.70;99.90;;;;;;4881088;29;20095;-87
2022/03/16 07:01:17;;;;;;;85.63;38.73;;;2.80;99.90;;;;;;4885377;29;20053;-86
2022/03/16 07:03:43;;;;;;;82.40;38.87;;;2.90;99.90;;;;;;4885610;29;20101;-86
2022/03/16 07:06:10;;;;;;;77.50;36.30;;;3.10;99.90;;;;;;4880361;23;20058;-86
2022/03/16 07:08:36;;;;;;;77.43;35.63;;;3.20;99.90;;;;;;4902577;29;20048;-86
2022/03/16 07:11:01;;;;;;;71.23;35.23;;;3.20;99.90;;;;;;4902457;29;20373;-86
2022/03/16 07:13:27;;;;;;;72.90;35.97;;;3.30;99.90;;;;;;4901307;29;20127;-85
2022/03/16 07:15:52;;;;;;;71.53;35.27;;;3.20;99.90;;;;;;4918762;29;20123;-85
2022/03/16 07:18:24;;;;;;;63.57;33.63;;;3.20;99.90;;;;;;4915987;29;20059;-88
2022/03/16 07:21:05;;;;;;;64.27;34.07;;;3.40;99.90;;;;;;4918494;29;20052;-88
2022/03/16 07:23:48;;;;;;;61.40;32.17;;;3.30;99.90;;;;;;4918960;29;20044;-93
2022/03/16 07:26:19;;;;;;;58.13;33.03;;;3.70;99.90;;;;;;4919962;29;20160;-92
2022/03/16 07:29:00;;;;;;;61.30;33.03;;;3.40;99.90;;;;;;4919381;29;20047;-91
2022/03/16 07:31:26;;;;;;;59.10;32.50;;;3.60;99.90;;;;;;4918618;29;20131;-91
2022/03/16 07:33:53;;;;;;;57.90;31.43;;;4.70;99.90;;;;;;4902249;29;20084;-89
2022/03/16 07:36:33;;;;;;;57.30;30.93;;;3.60;99.90;;;;;;4919053;29;20040;-91
2022/03/16 07:38:58;;;;;;;55.60;31.70;;;3.80;99.90;;;;;;4919519;29;20480;-91
2022/03/16 07:41:26;;;;;;;57.03;32.40;;;4.70;99.90;;;;;;4920605;29;20054;-94
2022/03/16 07:43:58;;;;;;;52.27;31.47;;;3.80;99.90;;;;;;4920447;29;20036;-89
2022/03/16 07:46:38;;;;;;;50.70;31.27;;;3.90;99.90;;;;;;4918882;29;20060;-90
2022/03/16 07:49:07;;;;;;;52.13;31.53;;;4.00;99.90;;;;;;4902250;29;20048;-92
2022/03/16 07:51:48;;;;;;;55.00;33.13;;;6.50;99.90;;;;;;4902866;29;20044;-92
2022/03/16 07:54:28;;;;;;;59.30;31.80;;;5.20;99.90;;;;;;4899293;29;20059;-91
2022/03/16 07:57:01;;;;;;;52.33;31.57;;;4.50;99.90;;;;;;4901875;29;20051;-91
2022/03/16 07:59:35;;;;;;;50.97;31.40;;;3.50;99.90;;;;;;4901998;29;20392;-91
2022/03/16 08:02:19;;;;;;;50.17;29.83;;;4.70;99.90;;;;;;4918483;29;20511;-92
2022/03/16 08:05:05;;;;;;;47.75;28.77;;;6.10;99.90;;;;;;4971577;23;20048;-92
2022/03/16 08:07:39;;;;;;;44.00;28.60;;;5.30;99.90;;;;;;4901775;29;20136;-91
2022/03/16 08:10:15;;;;;;;;;;;;;;;;;;;;;
2022/03/16 08:12:51;;;;;;;52.23;30.17;;;5.50;99.90;;;;;;4880448;29;20057;-90
2022/03/16 08:15:40;;;;;;;47.60;28.83;;;6.20;99.90;;;;;;4918351;29;20063;-91
2022/03/16 08:18:13;;;;;;;44.47;27.97;;;5.90;99.90;;;;;;4917601;29;20044;-91
2022/03/16 08:20:39;;;;;;;43.90;27.67;;;6.70;99.90;;;;;;4901241;29;20052;-91
2022/03/16 08:23:19;;;;;;;44.00;27.10;;;6.90;99.90;;;;;;4917522;29;20044;-90
2022/03/16 08:25:46;;;;;;;41.57;25.10;;;6.00;99.90;;;;;;4901269;29;20055;-91
2022/03/16 08:28:15;;;;;;;40.70;25.20;;;6.40;99.90;;;;;;4918436;29;20047;-91
2022/03/16 08:30:44;;;;;;;42.37;26.40;;;6.10;99.90;;;;;;4901023;29;20056;-91
2022/03/16 08:33:10;;;;;;;42.67;26.07;;;7.00;99.90;;;;;;4919333;29;20472;-87
2022/03/16 08:35:35;;;;;;;38.87;24.93;;;6.30;99.90;;;;;;4898750;29;20116;-90
2022/03/16 08:38:01;;;;;;;40.17;24.90;;;6.80;99.90;;;;;;4900589;29;20044;-92
2022/03/16 08:40:32;;;;;;;41.93;25.17;;;7.90;99.90;;;;;;4902066;29;20139;-94
2022/03/16 08:43:01;;;;;;;42.73;25.87;;;9.30;99.90;;;;;;4918446;29;20048;-94
2022/03/16 08:45:28;;;;;;;42.43;25.77;;;7.70;99.90;;;;;;4917108;29;20103;-88
2022/03/16 08:48:07;;;;;;;36.67;23.40;;;7.80;99.90;;;;;;4918021;29;20040;-89
2022/03/16 08:50:32;;;;;;;37.20;23.53;;;7.70;99.90;;;;;;4917962;29;20048;-88
2022/03/16 08:52:58;;;;;;;39.27;22.47;;;6.90;99.90;;;;;;4901292;29;20044;-88
2022/03/16 08:55:23;;;;;;;36.23;21.77;;;7.30;99.90;;;;;;4917650;29;20082;-88
2022/03/16 08:57:52;;;;;;;33.67;21.70;;;7.30;99.90;;;;;;4900296;29;20092;-87
2022/03/16 09:00:18;;;;;;;34.17;21.57;;;7.50;99.90;;;;;;4899773;29;20598;-88
2022/03/16 09:02:45;;;;;;;33.40;21.07;;;7.40;99.90;;;;;;4917423;29;20048;-88
2022/03/16 09:05:12;;;;;;;32.57;19.47;;;7.80;99.90;;;;;;4916116;29;20098;-87
2022/03/16 09:07:40;;;;;;;29.60;19.33;;;7.90;99.90;;;;;;4900293;29;20047;-89
2022/03/16 09:10:08;;;;;;;28.03;17.13;;;8.00;99.90;;;;;;4900091;29;20051;-88
2022/03/16 09:12:34;;;;;;;30.33;18.53;;;8.20;99.90;;;;;;4899499;29;20064;-88
2022/03/16 09:15:13;;;;;;;27.53;16.63;;;8.30;99.90;;;;;;4917216;29;20377;-89
2022/03/16 09:17:39;;;;;;;28.27;17.70;;;8.40;99.90;;;;;;4900051;29;20052;-91
2022/03/16 09:20:05;;;;;;;26.03;16.43;;;8.80;99.90;;;;;;4899059;29;20225;-85
2022/03/16 09:22:34;;;;;;;27.07;16.67;;;8.60;99.90;;;;;;4900104;29;20103;-96
2022/03/16 09:25:00;;;;;;;26.73;17.23;;;8.70;99.90;;;;;;4917366;29;20044;-91
2022/03/16 09:27:38;;;;;;;25.90;15.77;;;10.00;99.90;;;;;;4916593;29;20040;-88
2022/03/16 09:30:07;;;;;;;27.08;15.85;;;9.00;99.90;;;;;;4899166;29;20063;-88
2022/03/16 09:32:40;;;;;;;24.23;14.77;;;9.10;99.90;;;;;;4932716;23;20064;-90
2022/03/16 09:35:06;;;;;;;25.27;14.40;;;9.20;99.90;;;;;;4898977;29;20408;-89
2022/03/16 09:37:33;;;;;;;22.90;13.37;;;9.30;99.90;;;;;;4916571;29;20055;-89
2022/03/16 09:39:58;;;;;;;22.27;13.77;;;9.40;99.90;;;;;;4916827;29;20055;-89
2022/03/16 09:42:29;;;;;;;22.75;13.88;;;9.50;99.90;;;;;;4899053;29;20044;-88
2022/03/16 09:45:02;;;;;;;24.38;14.13;;;9.80;99.90;;;;;;4916619;29;20052;-89
2022/03/16 09:47:30;;;;;;;21.27;13.27;;;9.90;99.90;;;;;;4899176;29;20044;-89
2022/03/16 09:49:56;;;;;;;21.35;12.88;;;10.00;99.90;;;;;;4917340;29;20552;-90
2022/03/16 09:55:11;;;;;;;22.23;12.65;;;10.30;99.90;;;;;;4920830;29;20086;-90
2022/03/16 09:57:37;;;;;;;24.85;13.75;;;10.30;99.90;;;;;;4899888;29;20052;-89
2022/03/16 10:00:03;;;;;;;21.65;12.80;;;11.40;99.90;;;;;;4903159;29;20052;-90
2022/03/16 10:02:29;;;;;;;20.52;12.98;;;10.60;99.90;;;;;;4902666;29;20182;-89
2022/03/16 10:04:54;;;;;;;21.25;13.52;;;11.20;99.90;;;;;;4916408;29;20047;-89
2022/03/16 10:07:28;;;;;;;23.83;13.98;;;10.90;99.90;;;;;;4916337;29;20054;-90
2022/03/16 10:15:46;;;;;;;23.33;12.98;;;10.90;99.90;;;;;;4898572;29;20107;-90
2022/03/16 10:20:47;;;;;;;23.55;14.50;;;11.50;99.90;;;;;;4919091;23;20143;-91
2022/03/16 10:23:25;;;;;;;21.10;12.60;;;12.00;99.90;;;;;;4897923;29;20052;-90
2022/03/16 10:25:52;;;;;;;22.67;12.82;;;11.50;99.90;;;;;;4916381;29;20113;-91
2022/03/16 10:28:23;;;;;;;20.42;12.45;;;13.00;99.90;;;;;;4899367;29;20459;-93
2022/03/16 10:31:08;;;;;;;22.70;12.98;;;12.00;99.90;;;;;;4901838;29;20063;-96
2022/03/16 10:33:36;;;;;;;24.20;12.98;;;12.00;99.90;;;;;;4920435;29;20103;-90
2022/03/16 10:36:11;;;;;;;20.73;13.20;;;12.20;99.90;;;;;;4903002;29;20058;-89
2022/03/16 10:38:58;;;;;;;22.60;13.18;;;12.30;99.90;;;;;;4903459;29;20048;-92
2022/03/16 10:48:15;;;;;;;20.85;11.88;;;12.20;99.90;;;;;;4898194;29;20155;-90
2022/03/16 10:51:05;;;;;;;19.88;12.02;;;12.30;99.90;;;;;;4900368;29;20052;-91
2022/03/16 10:53:33;;;;;;;18.20;10.57;;;12.40;99.90;;;;;;4884014;29;20060;-91
2022/03/16 10:56:16;;;;;;;17.80;9.95;;;12.80;99.90;;;;;;4884689;29;20378;-91
2022/03/16 10:58:43;;;;;;;18.20;10.07;;;12.60;99.90;;;;;;4883578;29;20565;-91
2022/03/16 11:01:09;;;;;;;18.63;10.95;;;12.80;99.90;;;;;;4900022;29;20507;-92
2022/03/16 11:03:58;;;;;;;19.98;10.85;;;12.80;99.90;;;;;;4884556;29;20045;-93
2022/03/16 11:10:46;;;;;;;19.33;10.75;;;12.70;99.90;;;;;;5164004;23;20063;-90
2022/03/16 11:16:33;;;;;;;20.88;11.05;;;13.60;99.90;;;;;;4947145;23;20022;-95
2022/03/16 11:42:21;;;;;;;21.50;11.93;;;13.50;99.90;;;;;;4918376;23;20048;-92
2022/03/16 11:45:53;;;;;;;20.10;12.02;;;14.70;99.90;;;;;;4905274;29;20059;-96
2022/03/16 11:48:37;;;;;;;20.15;12.43;;;14.20;99.90;;;;;;4842353;29;20089;-91
2022/03/16 11:56:59;;;;;;;20.25;13.05;;;14.80;99.90;;;;;;4858872;29;20046;-92
2022/03/16 11:59:33;;;;;;;19.55;12.05;;;15.60;99.90;;;;;;4846051;29;20054;-93
2022/03/16 12:02:34;;;;;;;21.45;12.68;;;15.20;99.90;;;;;;4841722;29;20057;-93
2022/03/16 12:05:12;;;;;;;20.70;12.30;;;14.90;99.90;;;;;;4842601;29;20045;-93
2022/03/16 12:07:42;;;;;;;21.60;12.15;;;13.80;99.90;;;;;;4826812;29;20517;-92
2022/03/16 12:10:19;;;;;;;21.48;12.75;;;15.00;99.90;;;;;;4841644;29;20050;-92
2022/03/16 12:12:57;;;;;;;19.20;12.38;;;14.40;99.90;;;;;;4867304;23;20062;-93
2022/03/16 12:15:32;;;;;;;20.83;12.65;;;16.00;99.90;;;;;;4915428;23;20453;-93
2022/03/16 12:18:01;;;;;;;21.73;12.30;;;15.00;99.90;;;;;;4902724;29;20048;-93
2022/03/16 12:21:30;;;;;;;20.35;12.90;;;13.90;99.90;;;;;;4918343;29;20051;-93
2022/03/16 12:30:55;;;;;;;22.58;13.90;;;15.30;99.90;;;;;;4786376;30;20554;-94
2022/03/16 12:39:31;;;;;;;20.63;12.85;;;15.60;99.90;;;;;;4959041;23;20087;-96
2022/03/16 12:48:12;;;;;;;20.17;12.63;;;16.20;99.90;;;;;;4912754;23;20056;-92
2022/03/16 12:50:44;;;;;;;22.38;13.65;;;15.70;99.90;;;;;;4895511;29;20060;-90
2022/03/16 12:53:46;;;;;;;22.02;13.20;;;16.90;99.90;;;;;;4900513;29;20048;-93
2022/03/16 12:59:08;;;;;;;21.50;13.48;;;15.80;99.90;;;;;;5001544;23;20060;-90
2022/03/16 13:01:37;;;;;;;22.67;13.77;;;15.90;99.90;;;;;;4900851;29;20069;-90
2022/03/16 13:04:07;;;;;;;21.00;13.57;;;15.60;99.90;;;;;;4916952;29;20567;-89
2022/03/16 13:06:36;;;;;;;21.88;13.85;;;15.60;99.90;;;;;;4900058;29;20048;-91
2022/03/16 13:09:08;;;;;;;22.50;14.63;;;16.30;99.90;;;;;;4924150;23;20060;-90
2022/03/16 13:12:26;;;;;;;20.20;13.50;;;17.00;99.90;;;;;;4899392;29;20067;-91
2022/03/16 13:15:41;;;;;;;22.00;13.50;;;16.10;99.90;;;;;;4890093;23;20174;-91
2022/03/16 13:18:09;;;;;;;22.02;14.45;;;16.10;99.90;;;;;;4895970;29;20048;-89
2022/03/16 13:21:32;;;;;;;22.33;13.45;;;17.10;99.90;;;;;;4896970;29;20061;-89
2022/03/16 13:24:04;;;;;;;21.50;13.77;;;16.10;99.90;;;;;;4893392;29;20501;-90
2022/03/16 13:26:30;;;;;;;21.83;14.13;;;16.00;99.90;;;;;;4895713;29;20053;-91
2022/03/16 13:29:12;;;;;;;20.33;14.07;;;15.60;99.90;;;;;;4898489;29;20172;-90
2022/03/16 13:31:41;;;;;;;22.95;14.52;;;15.60;99.90;;;;;;4898090;29;20054;-91
2022/03/16 13:34:09;;;;;;;22.25;14.60;;;15.70;99.90;;;;;;4913075;23;20049;-91
2022/03/16 13:36:42;;;;;;;20.90;14.35;;;16.20;99.90;;;;;;4897958;29;20468;-91
2022/03/16 13:39:38;;;;;;;23.50;14.55;;;15.40;99.90;;;;;;4897560;29;20048;-90
2022/03/16 13:42:27;;;;;;;23.35;15.52;;;15.50;99.90;;;;;;4881445;29;20104;-91
2022/03/16 13:44:53;;;;;;;20.70;14.00;;;15.50;99.90;;;;;;4881384;29;20059;-90
2022/03/16 13:47:23;;;;;;;23.27;14.63;;;16.80;99.90;;;;;;4897106;29;20041;-91
2022/03/16 13:49:55;;;;;;;22.20;14.90;;;14.60;99.90;;;;;;4898195;29;20139;-90
2022/03/16 13:52:27;;;;;;;23.02;15.32;;;16.70;99.90;;;;;;4897523;29;20060;-90
2022/03/16 13:55:14;;;;;;;22.83;15.45;;;16.00;99.90;;;;;;4880192;29;20405;-90
2022/03/16 13:57:52;;;;;;;23.45;15.90;;;15.70;99.90;;;;;;4881161;29;20378;-90
2022/03/16 14:00:22;;;;;;;24.77;15.57;;;15.70;99.90;;;;;;4882130;29;20048;-90
2022/03/16 14:03:06;;;;;;;24.92;15.45;;;15.00;99.90;;;;;;4899337;29;20146;-91
2022/03/16 14:05:35;;;;;;;21.98;14.75;;;15.10;99.90;;;;;;4898327;29;20056;-90
2022/03/16 14:08:10;;;;;;;22.30;14.70;;;16.30;99.90;;;;;;4880489;29;20044;-91